CEX3 weather

Public forecast

Using degrees Celsius for public forecast. Weather courtesy of forecast.io.

Closest aviation weather report (METAR) to Wetaskiwin Regional Airport

Closest report is Edmonton International Airport, 21.6 nm (40.0 km) NNW. Retrieved 2020/08/10 08:00 UTC (36 minutes ago):

CYEG 100800Z CCA 28005KT 20SM BKN094 OVC130 13/07 A2991 RMK AC7AC1 SLP132 DENSITY ALT 2700FT

Closest aviation forecast (TAF) to Wetaskiwin Regional Airport

Closest forecast is Edmonton International Airport, 21.6 nm (40.0 km) NNW. Retrieved 2020/08/10 09:41 UTC (0 seconds ago):

TAF CYEG 100838Z 1009/1106 28006KT P6SM SCT060 BKN120 OVC200 TEMPO 1009/1012 BKN060 OVC120 FM101200 28008KT P6SM FEW060 BECMG 1013/1015 31012G22KT FM101800 31015G25KT P6SM SKC BECMG 1022/1024 32008KT RMK NXT FCST BY 101200Z